sensor_id;sensor_type;location;lat;lon;timestamp;temperature;humidity
20526;DHT22;10421;49.142;9.232;2022-09-27T00:00:32;14.70;98.00
20526;DHT22;10421;49.142;9.232;2022-09-27T00:02:59;14.70;98.80
20526;DHT22;10421;49.142;9.232;2022-09-27T00:05:26;14.60;98.40
20526;DHT22;10421;49.142;9.232;2022-09-27T00:07:52;14.60;98.30
20526;DHT22;10421;49.142;9.232;2022-09-27T00:10:19;14.50;98.30
20526;DHT22;10421;49.142;9.232;2022-09-27T00:12:46;14.50;98.60
20526;DHT22;10421;49.142;9.232;2022-09-27T00:15:15;14.50;98.50
20526;DHT22;10421;49.142;9.232;2022-09-27T00:17:42;14.50;98.90
20526;DHT22;10421;49.142;9.232;2022-09-27T00:20:09;14.60;98.90
20526;DHT22;10421;49.142;9.232;2022-09-27T00:22:36;14.60;98.90
20526;DHT22;10421;49.142;9.232;2022-09-27T00:25:03;14.50;98.70
20526;DHT22;10421;49.142;9.232;2022-09-27T00:27:32;14.50;98.60
20526;DHT22;10421;49.142;9.232;2022-09-27T00:29:58;14.50;98.60
20526;DHT22;10421;49.142;9.232;2022-09-27T00:32:26;14.50;98.70
20526;DHT22;10421;49.142;9.232;2022-09-27T00:34:53;14.50;98.90
20526;DHT22;10421;49.142;9.232;2022-09-27T00:37:20;14.50;99.00
20526;DHT22;10421;49.142;9.232;2022-09-27T00:39:47;14.50;98.90
20526;DHT22;10421;49.142;9.232;2022-09-27T00:42:14;14.40;98.80
20526;DHT22;10421;49.142;9.232;2022-09-27T00:45:05;14.40;98.90
20526;DHT22;10421;49.142;9.232;2022-09-27T00:47:38;14.40;99.10
20526;DHT22;10421;49.142;9.232;2022-09-27T00:50:12;14.30;99.40
20526;DHT22;10421;49.142;9.232;2022-09-27T00:52:44;14.40;99.40
20526;DHT22;10421;49.142;9.232;2022-09-27T00:55:15;14.30;99.30
20526;DHT22;10421;49.142;9.232;2022-09-27T00:57:44;14.30;99.40
20526;DHT22;10421;49.142;9.232;2022-09-27T01:00:12;14.30;99.50
20526;DHT22;10421;49.142;9.232;2022-09-27T01:02:44;14.30;99.40
20526;DHT22;10421;49.142;9.232;2022-09-27T01:05:14;14.30;99.30
20526;DHT22;10421;49.142;9.232;2022-09-27T01:07:41;14.30;99.30
20526;DHT22;10421;49.142;9.232;2022-09-27T01:10:08;14.40;99.40
20526;DHT22;10421;49.142;9.232;2022-09-27T01:12:44;14.40;99.40
20526;DHT22;10421;49.142;9.232;2022-09-27T01:15:22;14.30;99.50
20526;DHT22;10421;49.142;9.232;2022-09-27T01:18:02;14.30;99.70
20526;DHT22;10421;49.142;9.232;2022-09-27T01:23:45;14.30;99.70
20526;DHT22;10421;49.142;9.232;2022-09-27T01:26:27;14.30;99.60
20526;DHT22;10421;49.142;9.232;2022-09-27T01:29:03;14.30;99.80
20526;DHT22;10421;49.142;9.232;2022-09-27T01:31:39;14.30;99.90
20526;DHT22;10421;49.142;9.232;2022-09-27T01:34:12;14.10;99.90
20526;DHT22;10421;49.142;9.232;2022-09-27T01:36:47;14.10;99.90
20526;DHT22;10421;49.142;9.232;2022-09-27T01:39:25;14.10;99.90
20526;DHT22;10421;49.142;9.232;2022-09-27T01:41:59;14.10;99.90
20526;DHT22;10421;49.142;9.232;2022-09-27T01:44:32;14.10;99.90
20526;DHT22;10421;49.142;9.232;2022-09-27T01:47:03;14.20;99.90
20526;DHT22;10421;49.142;9.232;2022-09-27T01:49:38;14.20;99.90
20526;DHT22;10421;49.142;9.232;2022-09-27T01:52:07;14.20;99.90
20526;DHT22;10421;49.142;9.232;2022-09-27T01:54:38;14.20;99.90
20526;DHT22;10421;49.142;9.232;2022-09-27T01:57:08;14.10;99.90
20526;DHT22;10421;49.142;9.232;2022-09-27T01:59:40;14.10;99.90
20526;DHT22;10421;49.142;9.232;2022-09-27T02:02:12;14.10;99.90
20526;DHT22;10421;49.142;9.232;2022-09-27T02:04:42;14.10;99.90
20526;DHT22;10421;49.142;9.232;2022-09-27T02:07:12;14.10;99.90
20526;DHT22;10421;49.142;9.232;2022-09-27T02:09:45;14.10;99.90
20526;DHT22;10421;49.142;9.232;2022-09-27T02:12:20;14.00;99.90
20526;DHT22;10421;49.142;9.232;2022-09-27T02:14:49;14.00;99.90
20526;DHT22;10421;49.142;9.232;2022-09-27T02:17:24;13.90;99.90
20526;DHT22;10421;49.142;9.232;2022-09-27T02:20:01;14.00;99.90
20526;DHT22;10421;49.142;9.232;2022-09-27T02:22:34;13.80;99.90
20526;DHT22;10421;49.142;9.232;2022-09-27T02:25:10;13.90;99.90
20526;DHT22;10421;49.142;9.232;2022-09-27T02:27:45;13.90;99.90
20526;DHT22;10421;49.142;9.232;2022-09-27T02:30:15;14.00;99.90
20526;DHT22;10421;49.142;9.232;2022-09-27T02:32:43;14.00;99.90
20526;DHT22;10421;49.142;9.232;2022-09-27T02:35:16;13.90;99.90
20526;DHT22;10421;49.142;9.232;2022-09-27T02:37:43;13.90;99.90
20526;DHT22;10421;49.142;9.232;2022-09-27T02:40:10;13.90;99.90
20526;DHT22;10421;49.142;9.232;2022-09-27T02:42:38;13.90;99.90
20526;DHT22;10421;49.142;9.232;2022-09-27T02:45:06;13.90;99.90
20526;DHT22;10421;49.142;9.232;2022-09-27T02:47:48;14.00;99.90
20526;DHT22;10421;49.142;9.232;2022-09-27T02:50:32;14.00;99.90
20526;DHT22;10421;49.142;9.232;2022-09-27T02:53:05;14.00;99.90
20526;DHT22;10421;49.142;9.232;2022-09-27T02:55:43;13.90;99.90
20526;DHT22;10421;49.142;9.232;2022-09-27T02:58:19;13.90;99.90
20526;DHT22;10421;49.142;9.232;2022-09-27T03:00:53;13.80;99.90
20526;DHT22;10421;49.142;9.232;2022-09-27T03:03:26;13.80;99.90
20526;DHT22;10421;49.142;9.232;2022-09-27T03:06:00;13.80;99.90
20526;DHT22;10421;49.142;9.232;2022-09-27T03:08:28;13.80;99.90
20526;DHT22;10421;49.142;9.232;2022-09-27T03:10:55;13.70;99.90
20526;DHT22;10421;49.142;9.232;2022-09-27T03:13:22;13.70;99.90
20526;DHT22;10421;49.142;9.232;2022-09-27T03:15:49;13.80;99.90
20526;DHT22;10421;49.142;9.232;2022-09-27T03:18:15;13.80;99.90
20526;DHT22;10421;49.142;9.232;2022-09-27T03:20:43;13.70;99.90
20526;DHT22;10421;49.142;9.232;2022-09-27T03:23:10;13.70;99.90
20526;DHT22;10421;49.142;9.232;2022-09-27T03:25:37;13.70;99.90
20526;DHT22;10421;49.142;9.232;2022-09-27T03:28:04;13.80;99.90
20526;DHT22;10421;49.142;9.232;2022-09-27T03:30:31;13.80;99.90
20526;DHT22;10421;49.142;9.232;2022-09-27T03:32:57;13.80;99.90
20526;DHT22;10421;49.142;9.232;2022-09-27T03:35:24;13.70;99.90
20526;DHT22;10421;49.142;9.232;2022-09-27T03:37:52;13.80;99.90
20526;DHT22;10421;49.142;9.232;2022-09-27T03:40:19;13.80;99.90
20526;DHT22;10421;49.142;9.232;2022-09-27T03:42:45;13.80;99.90
20526;DHT22;10421;49.142;9.232;2022-09-27T03:45:14;13.70;99.90
20526;DHT22;10421;49.142;9.232;2022-09-27T03:47:41;13.70;99.90
20526;DHT22;10421;49.142;9.232;2022-09-27T03:50:08;13.60;99.90
20526;DHT22;10421;49.142;9.232;2022-09-27T03:52:36;13.50;99.90
20526;DHT22;10421;49.142;9.232;2022-09-27T03:55:04;13.60;99.90
20526;DHT22;10421;49.142;9.232;2022-09-27T03:57:31;13.50;99.90
20526;DHT22;10421;49.142;9.232;2022-09-27T03:59:58;13.40;99.90
20526;DHT22;10421;49.142;9.232;2022-09-27T04:02:25;13.40;99.90
20526;DHT22;10421;49.142;9.232;2022-09-27T04:04:52;13.30;99.90
20526;DHT22;10421;49.142;9.232;2022-09-27T04:07:19;13.30;99.90
20526;DHT22;10421;49.142;9.232;2022-09-27T04:09:45;13.30;99.90
20526;DHT22;10421;49.142;9.232;2022-09-27T04:12:14;13.50;99.90
20526;DHT22;10421;49.142;9.232;2022-09-27T04:14:40;13.40;99.90
20526;DHT22;10421;49.142;9.232;2022-09-27T04:17:07;13.50;99.90
20526;DHT22;10421;49.142;9.232;2022-09-27T04:19:34;13.40;99.90
20526;DHT22;10421;49.142;9.232;2022-09-27T04:22:01;13.30;99.90
20526;DHT22;10421;49.142;9.232;2022-09-27T04:24:28;13.20;99.90
20526;DHT22;10421;49.142;9.232;2022-09-27T04:26:57;13.30;99.90
20526;DHT22;10421;49.142;9.232;2022-09-27T04:29:25;13.40;99.90
20526;DHT22;10421;49.142;9.232;2022-09-27T04:31:52;13.40;99.90
20526;DHT22;10421;49.142;9.232;2022-09-27T04:34:19;13.40;99.90
20526;DHT22;10421;49.142;9.232;2022-09-27T04:37:07;13.50;99.90
20526;DHT22;10421;49.142;9.232;2022-09-27T04:39:32;13.60;99.90
20526;DHT22;10421;49.142;9.232;2022-09-27T04:42:01;13.50;99.90
20526;DHT22;10421;49.142;9.232;2022-09-27T04:44:29;13.50;99.90
20526;DHT22;10421;49.142;9.232;2022-09-27T04:46:56;13.50;99.90
20526;DHT22;10421;49.142;9.232;2022-09-27T04:49:22;13.50;99.90
20526;DHT22;10421;49.142;9.232;2022-09-27T04:51:49;13.40;99.90
20526;DHT22;10421;49.142;9.232;2022-09-27T04:54:16;13.30;99.90
20526;DHT22;10421;49.142;9.232;2022-09-27T04:56:42;13.30;99.90
20526;DHT22;10421;49.142;9.232;2022-09-27T04:59:09;13.40;99.90
20526;DHT22;10421;49.142;9.232;2022-09-27T05:01:37;13.50;99.90
20526;DHT22;10421;49.142;9.232;2022-09-27T05:04:04;13.60;99.90
20526;DHT22;10421;49.142;9.232;2022-09-27T05:06:31;13.60;99.90
20526;DHT22;10421;49.142;9.232;2022-09-27T05:08:58;13.70;99.90
20526;DHT22;10421;49.142;9.232;2022-09-27T05:11:25;13.60;99.90
20526;DHT22;10421;49.142;9.232;2022-09-27T05:13:52;13.70;99.90
20526;DHT22;10421;49.142;9.232;2022-09-27T05:16:18;13.70;99.90
20526;DHT22;10421;49.142;9.232;2022-09-27T05:18:46;13.80;99.90
20526;DHT22;10421;49.142;9.232;2022-09-27T05:21:13;13.90;99.90
20526;DHT22;10421;49.142;9.232;2022-09-27T05:23:40;13.90;99.90
20526;DHT22;10421;49.142;9.232;2022-09-27T05:26:07;14.00;99.90
20526;DHT22;10421;49.142;9.232;2022-09-27T05:28:34;14.00;99.90
20526;DHT22;10421;49.142;9.232;2022-09-27T05:31:00;13.90;99.90
20526;DHT22;10421;49.142;9.232;2022-09-27T05:33:27;13.80;99.90
20526;DHT22;10421;49.142;9.232;2022-09-27T05:35:56;13.80;99.90
20526;DHT22;10421;49.142;9.232;2022-09-27T05:38:23;13.80;99.90
20526;DHT22;10421;49.142;9.232;2022-09-27T05:40:50;13.70;99.90
20526;DHT22;10421;49.142;9.232;2022-09-27T05:43:17;13.70;99.90
20526;DHT22;10421;49.142;9.232;2022-09-27T05:45:44;13.70;99.90
20526;DHT22;10421;49.142;9.232;2022-09-27T05:48:11;13.60;99.90
20526;DHT22;10421;49.142;9.232;2022-09-27T05:50:39;13.50;99.90
20526;DHT22;10421;49.142;9.232;2022-09-27T05:53:08;13.60;99.90
20526;DHT22;10421;49.142;9.232;2022-09-27T05:55:35;13.50;99.90
20526;DHT22;10421;49.142;9.232;2022-09-27T05:58:03;13.40;99.90
20526;DHT22;10421;49.142;9.232;2022-09-27T06:00:30;13.50;99.90
20526;DHT22;10421;49.142;9.232;2022-09-27T06:02:59;13.50;99.90
20526;DHT22;10421;49.142;9.232;2022-09-27T06:05:30;13.50;99.90
20526;DHT22;10421;49.142;9.232;2022-09-27T06:07:58;13.50;99.90
20526;DHT22;10421;49.142;9.232;2022-09-27T06:10:28;13.50;99.90
20526;DHT22;10421;49.142;9.232;2022-09-27T06:12:58;13.40;99.90
20526;DHT22;10421;49.142;9.232;2022-09-27T06:15:25;13.40;99.90
20526;DHT22;10421;49.142;9.232;2022-09-27T06:17:52;13.30;99.90
20526;DHT22;10421;49.142;9.232;2022-09-27T06:20:19;13.30;99.90
20526;DHT22;10421;49.142;9.232;2022-09-27T06:22:46;13.20;99.90
20526;DHT22;10421;49.142;9.232;2022-09-27T06:25:13;13.30;99.90
20526;DHT22;10421;49.142;9.232;2022-09-27T06:27:41;13.30;99.90
20526;DHT22;10421;49.142;9.232;2022-09-27T06:30:09;13.30;99.90
20526;DHT22;10421;49.142;9.232;2022-09-27T06:32:37;13.40;99.90
20526;DHT22;10421;49.142;9.232;2022-09-27T06:35:04;13.50;99.90
20526;DHT22;10421;49.142;9.232;2022-09-27T06:37:31;13.50;99.90
20526;DHT22;10421;49.142;9.232;2022-09-27T06:39:59;13.60;99.90
20526;DHT22;10421;49.142;9.232;2022-09-27T06:42:26;13.60;99.90
20526;DHT22;10421;49.142;9.232;2022-09-27T06:44:55;13.60;99.90
20526;DHT22;10421;49.142;9.232;2022-09-27T06:47:22;13.60;99.90
20526;DHT22;10421;49.142;9.232;2022-09-27T06:49:49;13.60;99.90
20526;DHT22;10421;49.142;9.232;2022-09-27T06:52:16;13.60;99.90
20526;DHT22;10421;49.142;9.232;2022-09-27T06:54:42;13.50;99.90
20526;DHT22;10421;49.142;9.232;2022-09-27T06:57:09;13.60;99.90
20526;DHT22;10421;49.142;9.232;2022-09-27T06:59:57;13.60;99.90
20526;DHT22;10421;49.142;9.232;2022-09-27T07:02:41;13.60;99.90
20526;DHT22;10421;49.142;9.232;2022-09-27T07:05:08;13.60;99.90
20526;DHT22;10421;49.142;9.232;2022-09-27T07:07:35;13.60;99.90
20526;DHT22;10421;49.142;9.232;2022-09-27T07:10:02;13.50;99.90
20526;DHT22;10421;49.142;9.232;2022-09-27T07:12:28;13.50;99.90
20526;DHT22;10421;49.142;9.232;2022-09-27T07:14:56;13.50;99.90
20526;DHT22;10421;49.142;9.232;2022-09-27T07:17:24;13.40;99.90
20526;DHT22;10421;49.142;9.232;2022-09-27T07:19:52;13.40;99.90
20526;DHT22;10421;49.142;9.232;2022-09-27T07:22:19;13.50;99.90
20526;DHT22;10421;49.142;9.232;2022-09-27T07:24:46;13.40;99.90
20526;DHT22;10421;49.142;9.232;2022-09-27T07:27:13;13.30;99.90
20526;DHT22;10421;49.142;9.232;2022-09-27T07:29:40;13.20;99.90
20526;DHT22;10421;49.142;9.232;2022-09-27T07:32:08;13.10;99.90
20526;DHT22;10421;49.142;9.232;2022-09-27T07:34:34;13.00;99.90
20526;DHT22;10421;49.142;9.232;2022-09-27T07:37:01;13.00;99.90
20526;DHT22;10421;49.142;9.232;2022-09-27T07:39:30;13.00;99.90
20526;DHT22;10421;49.142;9.232;2022-09-27T07:41:56;13.10;99.90
20526;DHT22;10421;49.142;9.232;2022-09-27T07:44:23;13.00;99.90
20526;DHT22;10421;49.142;9.232;2022-09-27T07:46:50;13.10;99.90
20526;DHT22;10421;49.142;9.232;2022-09-27T07:49:18;13.00;99.90
20526;DHT22;10421;49.142;9.232;2022-09-27T07:51:44;13.00;99.90
20526;DHT22;10421;49.142;9.232;2022-09-27T07:54:11;13.20;99.90
20526;DHT22;10421;49.142;9.232;2022-09-27T07:56:38;13.20;99.90
20526;DHT22;10421;49.142;9.232;2022-09-27T07:59:04;13.20;99.90
20526;DHT22;10421;49.142;9.232;2022-09-27T08:01:31;13.30;99.90
20526;DHT22;10421;49.142;9.232;2022-09-27T08:03:59;13.30;99.90
20526;DHT22;10421;49.142;9.232;2022-09-27T08:06:28;13.30;99.90
20526;DHT22;10421;49.142;9.232;2022-09-27T08:08:54;13.20;99.90
20526;DHT22;10421;49.142;9.232;2022-09-27T08:11:22;13.20;99.90
20526;DHT22;10421;49.142;9.232;2022-09-27T08:13:48;13.30;99.90
20526;DHT22;10421;49.142;9.232;2022-09-27T08:16:17;13.30;99.90
20526;DHT22;10421;49.142;9.232;2022-09-27T08:18:44;13.40;99.90
20526;DHT22;10421;49.142;9.232;2022-09-27T08:21:10;13.40;99.80
20526;DHT22;10421;49.142;9.232;2022-09-27T08:23:38;13.50;99.90
20526;DHT22;10421;49.142;9.232;2022-09-27T08:26:05;13.60;99.50
20526;DHT22;10421;49.142;9.232;2022-09-27T08:28:32;13.70;99.30
20526;DHT22;10421;49.142;9.232;2022-09-27T08:30:59;13.60;98.80
20526;DHT22;10421;49.142;9.232;2022-09-27T08:33:26;13.60;99.10
20526;DHT22;10421;49.142;9.232;2022-09-27T08:35:53;13.70;99.30
20526;DHT22;10421;49.142;9.232;2022-09-27T08:38:19;13.70;98.90
20526;DHT22;10421;49.142;9.232;2022-09-27T08:40:52;13.80;98.60
20526;DHT22;10421;49.142;9.232;2022-09-27T08:43:28;13.90;98.30
20526;DHT22;10421;49.142;9.232;2022-09-27T08:46:06;13.80;98.40
20526;DHT22;10421;49.142;9.232;2022-09-27T08:48:35;13.90;98.40
20526;DHT22;10421;49.142;9.232;2022-09-27T08:51:04;14.10;98.30
20526;DHT22;10421;49.142;9.232;2022-09-27T08:53:36;14.10;97.80
20526;DHT22;10421;49.142;9.232;2022-09-27T08:56:07;14.20;97.60
20526;DHT22;10421;49.142;9.232;2022-09-27T08:58:36;14.30;97.80
20526;DHT22;10421;49.142;9.232;2022-09-27T09:01:09;14.30;97.20
20526;DHT22;10421;49.142;9.232;2022-09-27T09:03:39;14.30;97.20
20526;DHT22;10421;49.142;9.232;2022-09-27T09:06:13;14.50;97.20
20526;DHT22;10421;49.142;9.232;2022-09-27T09:08:52;14.50;97.10
20526;DHT22;10421;49.142;9.232;2022-09-27T09:11:42;14.50;97.00
20526;DHT22;10421;49.142;9.232;2022-09-27T09:14:43;14.60;96.70
20526;DHT22;10421;49.142;9.232;2022-09-27T09:17:19;14.70;96.50
20526;DHT22;10421;49.142;9.232;2022-09-27T09:20:15;14.70;96.10
20526;DHT22;10421;49.142;9.232;2022-09-27T09:22:56;14.70;95.50
20526;DHT22;10421;49.142;9.232;2022-09-27T09:25:29;14.70;95.60
20526;DHT22;10421;49.142;9.232;2022-09-27T09:28:10;14.70;95.00
20526;DHT22;10421;49.142;9.232;2022-09-27T09:30:50;14.80;95.20
20526;DHT22;10421;49.142;9.232;2022-09-27T09:33:24;14.90;95.20
20526;DHT22;10421;49.142;9.232;2022-09-27T09:35:54;15.00;94.90
20526;DHT22;10421;49.142;9.232;2022-09-27T09:38:32;15.00;94.60
20526;DHT22;10421;49.142;9.232;2022-09-27T09:41:02;14.90;94.00
20526;DHT22;10421;49.142;9.232;2022-09-27T09:43:34;14.80;93.50
20526;DHT22;10421;49.142;9.232;2022-09-27T09:46:06;14.70;93.80
20526;DHT22;10421;49.142;9.232;2022-09-27T09:48:40;14.60;94.00
20526;DHT22;10421;49.142;9.232;2022-09-27T09:51:13;14.70;93.90
20526;DHT22;10421;49.142;9.232;2022-09-27T09:53:46;14.60;94.30
20526;DHT22;10421;49.142;9.232;2022-09-27T09:56:19;14.40;94.70
20526;DHT22;10421;49.142;9.232;2022-09-27T09:58:52;14.30;94.80
20526;DHT22;10421;49.142;9.232;2022-09-27T10:01:23;14.50;94.50
20526;DHT22;10421;49.142;9.232;2022-09-27T10:03:53;14.60;94.40
20526;DHT22;10421;49.142;9.232;2022-09-27T10:06:19;14.70;94.30
20526;DHT22;10421;49.142;9.232;2022-09-27T10:08:46;14.70;94.30
20526;DHT22;10421;49.142;9.232;2022-09-27T10:11:20;14.60;94.30
20526;DHT22;10421;49.142;9.232;2022-09-27T10:13:49;14.60;94.40
20526;DHT22;10421;49.142;9.232;2022-09-27T10:16:19;14.60;94.90
20526;DHT22;10421;49.142;9.232;2022-09-27T10:18:47;14.60;94.40
20526;DHT22;10421;49.142;9.232;2022-09-27T10:21:19;14.50;94.60
20526;DHT22;10421;49.142;9.232;2022-09-27T10:24:09;14.10;95.70
20526;DHT22;10421;49.142;9.232;2022-09-27T10:26:37;14.20;96.30
20526;DHT22;10421;49.142;9.232;2022-09-27T10:29:31;14.20;96.80
20526;DHT22;10421;49.142;9.232;2022-09-27T10:31:58;14.20;97.20
20526;DHT22;10421;49.142;9.232;2022-09-27T10:34:30;14.20;97.60
20526;DHT22;10421;49.142;9.232;2022-09-27T10:37:15;14.10;97.90
20526;DHT22;10421;49.142;9.232;2022-09-27T10:39:43;14.10;97.60
20526;DHT22;10421;49.142;9.232;2022-09-27T10:42:22;14.10;97.70
20526;DHT22;10421;49.142;9.232;2022-09-27T10:44:50;14.20;97.60
20526;DHT22;10421;49.142;9.232;2022-09-27T10:47:19;14.10;97.50
20526;DHT22;10421;49.142;9.232;2022-09-27T10:49:48;14.10;97.60
20526;DHT22;10421;49.142;9.232;2022-09-27T10:52:18;13.90;98.10
20526;DHT22;10421;49.142;9.232;2022-09-27T10:54:53;14.10;98.20
20526;DHT22;10421;49.142;9.232;2022-09-27T10:57:21;14.20;97.90
20526;DHT22;10421;49.142;9.232;2022-09-27T10:59:52;14.40;97.60
20526;DHT22;10421;49.142;9.232;2022-09-27T11:02:21;14.30;97.10
20526;DHT22;10421;49.142;9.232;2022-09-27T11:05:05;14.20;97.10
20526;DHT22;10421;49.142;9.232;2022-09-27T11:07:35;14.00;97.00
20526;DHT22;10421;49.142;9.232;2022-09-27T11:10:21;14.00;97.20
20526;DHT22;10421;49.142;9.232;2022-09-27T11:13:05;14.00;97.40
20526;DHT22;10421;49.142;9.232;2022-09-27T11:15:42;14.10;97.50
20526;DHT22;10421;49.142;9.232;2022-09-27T11:18:18;14.10;97.70
20526;DHT22;10421;49.142;9.232;2022-09-27T11:20:52;14.20;97.50
20526;DHT22;10421;49.142;9.232;2022-09-27T11:23:41;14.30;97.80
20526;DHT22;10421;49.142;9.232;2022-09-27T11:26:32;14.40;97.90
20526;DHT22;10421;49.142;9.232;2022-09-27T11:29:11;14.20;97.20
20526;DHT22;10421;49.142;9.232;2022-09-27T11:31:45;14.30;97.10
20526;DHT22;10421;49.142;9.232;2022-09-27T11:34:42;14.20;97.60
20526;DHT22;10421;49.142;9.232;2022-09-27T11:37:18;14.00;97.20
20526;DHT22;10421;49.142;9.232;2022-09-27T11:40:01;14.00;97.00
20526;DHT22;10421;49.142;9.232;2022-09-27T11:42:47;14.00;97.50
20526;DHT22;10421;49.142;9.232;2022-09-27T11:45:29;14.00;98.00
20526;DHT22;10421;49.142;9.232;2022-09-27T11:48:07;14.00;97.70
20526;DHT22;10421;49.142;9.232;2022-09-27T11:53:47;13.80;97.60
20526;DHT22;10421;49.142;9.232;2022-09-27T11:56:23;13.70;97.50
20526;DHT22;10421;49.142;9.232;2022-09-27T11:59:04;13.60;97.00
20526;DHT22;10421;49.142;9.232;2022-09-27T12:01:41;13.60;97.20
20526;DHT22;10421;49.142;9.232;2022-09-27T12:04:40;13.60;96.90
20526;DHT22;10421;49.142;9.232;2022-09-27T12:07:16;13.60;97.00
20526;DHT22;10421;49.142;9.232;2022-09-27T12:09:47;13.50;96.70
20526;DHT22;10421;49.142;9.232;2022-09-27T12:12:19;13.50;96.70
20526;DHT22;10421;49.142;9.232;2022-09-27T12:14:49;13.50;96.30
20526;DHT22;10421;49.142;9.232;2022-09-27T12:17:20;13.50;95.90
20526;DHT22;10421;49.142;9.232;2022-09-27T12:19:52;13.40;95.70
20526;DHT22;10421;49.142;9.232;2022-09-27T12:22:22;13.30;96.00
20526;DHT22;10421;49.142;9.232;2022-09-27T12:24:51;13.40;96.50
20526;DHT22;10421;49.142;9.232;2022-09-27T12:27:33;13.40;96.20
20526;DHT22;10421;49.142;9.232;2022-09-27T12:30:01;13.30;96.40
20526;DHT22;10421;49.142;9.232;2022-09-27T12:32:34;13.20;96.90
20526;DHT22;10421;49.142;9.232;2022-09-27T12:35:08;13.10;96.90
20526;DHT22;10421;49.142;9.232;2022-09-27T12:37:44;13.20;97.10
20526;DHT22;10421;49.142;9.232;2022-09-27T12:40:16;13.30;97.20
20526;DHT22;10421;49.142;9.232;2022-09-27T12:42:48;13.30;97.30
20526;DHT22;10421;49.142;9.232;2022-09-27T12:45:30;13.40;97.00
20526;DHT22;10421;49.142;9.232;2022-09-27T12:48:05;13.50;96.80
20526;DHT22;10421;49.142;9.232;2022-09-27T12:50:38;13.30;97.20
20526;DHT22;10421;49.142;9.232;2022-09-27T12:53:13;13.40;97.10
20526;DHT22;10421;49.142;9.232;2022-09-27T12:55:57;13.40;96.90
20526;DHT22;10421;49.142;9.232;2022-09-27T12:58:56;13.40;97.00
20526;DHT22;10421;49.142;9.232;2022-09-27T13:01:47;13.50;96.80
20526;DHT22;10421;49.142;9.232;2022-09-27T13:04:47;13.40;96.10
20526;DHT22;10421;49.142;9.232;2022-09-27T13:07:25;13.40;96.40
20526;DHT22;10421;49.142;9.232;2022-09-27T13:10:07;13.30;96.60
20526;DHT22;10421;49.142;9.232;2022-09-27T13:12:36;13.30;96.50
20526;DHT22;10421;49.142;9.232;2022-09-27T13:15:06;13.20;96.60
20526;DHT22;10421;49.142;9.232;2022-09-27T13:17:49;13.30;96.40
20526;DHT22;10421;49.142;9.232;2022-09-27T13:20:38;13.30;96.60
20526;DHT22;10421;49.142;9.232;2022-09-27T13:26:22;13.30;96.80
20526;DHT22;10421;49.142;9.232;2022-09-27T13:29:00;13.30;96.40
20526;DHT22;10421;49.142;9.232;2022-09-27T13:34:38;13.60;96.40
20526;DHT22;10421;49.142;9.232;2022-09-27T13:37:37;13.50;95.90
20526;DHT22;10421;49.142;9.232;2022-09-27T13:40:19;13.50;96.20
20526;DHT22;10421;49.142;9.232;2022-09-27T13:43:01;13.70;96.20
20526;DHT22;10421;49.142;9.232;2022-09-27T13:45:33;13.80;95.90
20526;DHT22;10421;49.142;9.232;2022-09-27T13:48:08;13.80;95.80
20526;DHT22;10421;49.142;9.232;2022-09-27T13:50:44;14.00;95.90
20526;DHT22;10421;49.142;9.232;2022-09-27T13:53:20;14.00;95.70
20526;DHT22;10421;49.142;9.232;2022-09-27T13:55:49;14.00;95.70
20526;DHT22;10421;49.142;9.232;2022-09-27T13:58:34;13.90;96.00
20526;DHT22;10421;49.142;9.232;2022-09-27T14:01:10;13.90;95.80
20526;DHT22;10421;49.142;9.232;2022-09-27T14:03:41;13.90;96.10
20526;DHT22;10421;49.142;9.232;2022-09-27T14:06:14;13.90;96.10
20526;DHT22;10421;49.142;9.232;2022-09-27T14:08:44;13.90;96.00
20526;DHT22;10421;49.142;9.232;2022-09-27T14:11:13;13.90;95.80
20526;DHT22;10421;49.142;9.232;2022-09-27T14:13:44;13.90;95.80
20526;DHT22;10421;49.142;9.232;2022-09-27T14:16:14;14.00;96.00
20526;DHT22;10421;49.142;9.232;2022-09-27T14:18:43;14.00;96.00
20526;DHT22;10421;49.142;9.232;2022-09-27T14:21:26;14.10;96.10
20526;DHT22;10421;49.142;9.232;2022-09-27T14:24:19;14.20;96.20
20526;DHT22;10421;49.142;9.232;2022-09-27T14:26:46;14.20;96.20
20526;DHT22;10421;49.142;9.232;2022-09-27T14:29:16;14.20;96.00
20526;DHT22;10421;49.142;9.232;2022-09-27T14:31:43;14.10;96.00
20526;DHT22;10421;49.142;9.232;2022-09-27T14:34:12;14.00;96.20
20526;DHT22;10421;49.142;9.232;2022-09-27T14:36:39;13.90;96.20
20526;DHT22;10421;49.142;9.232;2022-09-27T14:39:29;14.00;96.10
20526;DHT22;10421;49.142;9.232;2022-09-27T14:41:57;14.00;95.80
20526;DHT22;10421;49.142;9.232;2022-09-27T14:44:25;14.20;95.80
20526;DHT22;10421;49.142;9.232;2022-09-27T14:47:09;14.20;95.50
20526;DHT22;10421;49.142;9.232;2022-09-27T14:49:45;14.10;95.80
20526;DHT22;10421;49.142;9.232;2022-09-27T14:52:16;13.90;96.20
20526;DHT22;10421;49.142;9.232;2022-09-27T14:54:43;14.00;96.20
20526;DHT22;10421;49.142;9.232;2022-09-27T14:57:14;14.00;96.40
20526;DHT22;10421;49.142;9.232;2022-09-27T14:59:43;14.00;96.60
20526;DHT22;10421;49.142;9.232;2022-09-27T15:02:17;14.00;96.80
20526;DHT22;10421;49.142;9.232;2022-09-27T15:04:47;14.00;97.20
20526;DHT22;10421;49.142;9.232;2022-09-27T15:07:16;14.00;97.90
20526;DHT22;10421;49.142;9.232;2022-09-27T15:09:44;14.00;98.00
20526;DHT22;10421;49.142;9.232;2022-09-27T15:12:14;14.10;98.00
20526;DHT22;10421;49.142;9.232;2022-09-27T15:14:42;14.10;98.20
20526;DHT22;10421;49.142;9.232;2022-09-27T15:17:16;14.10;98.40
20526;DHT22;10421;49.142;9.232;2022-09-27T15:20:01;14.10;98.40
20526;DHT22;10421;49.142;9.232;2022-09-27T15:22:34;14.10;98.40
20526;DHT22;10421;49.142;9.232;2022-09-27T15:25:16;14.10;98.50
20526;DHT22;10421;49.142;9.232;2022-09-27T15:27:50;13.90;98.70
20526;DHT22;10421;49.142;9.232;2022-09-27T15:30:24;14.00;99.10
20526;DHT22;10421;49.142;9.232;2022-09-27T15:32:52;13.90;99.00
20526;DHT22;10421;49.142;9.232;2022-09-27T15:35:24;14.00;99.10
20526;DHT22;10421;49.142;9.232;2022-09-27T15:37:51;14.00;99.30
20526;DHT22;10421;49.142;9.232;2022-09-27T15:40:57;13.90;99.40
20526;DHT22;10421;49.142;9.232;2022-09-27T15:43:27;13.80;99.30
20526;DHT22;10421;49.142;9.232;2022-09-27T15:45:59;13.70;99.20
20526;DHT22;10421;49.142;9.232;2022-09-27T15:48:28;13.60;99.40
20526;DHT22;10421;49.142;9.232;2022-09-27T15:50:56;13.50;99.20
20526;DHT22;10421;49.142;9.232;2022-09-27T15:53:42;13.40;99.50
20526;DHT22;10421;49.142;9.232;2022-09-27T15:56:13;13.50;99.20
20526;DHT22;10421;49.142;9.232;2022-09-27T15:58:40;13.40;99.00
20526;DHT22;10421;49.142;9.232;2022-09-27T16:01:16;13.40;98.90
20526;DHT22;10421;49.142;9.232;2022-09-27T16:03:44;13.60;99.10
20526;DHT22;10421;49.142;9.232;2022-09-27T16:06:12;13.70;98.80
20526;DHT22;10421;49.142;9.232;2022-09-27T16:08:39;13.70;98.50
20526;DHT22;10421;49.142;9.232;2022-09-27T16:11:08;13.70;98.20